sensor_id;sensor_type;location;lat;lon;timestamp;pressure;altitude;pressure_sealevel;temperature;humidity
31483;BME280;18103;52.246;8.052;2023-05-07T00:00:54;100530.31;;;13.81;77.22
31483;BME280;18103;52.246;8.052;2023-05-07T00:03:20;100538.94;;;13.74;77.59
31483;BME280;18103;52.246;8.052;2023-05-07T00:05:48;100542.03;;;13.79;76.99
31483;BME280;18103;52.246;8.052;2023-05-07T00:08:16;100544.09;;;13.65;77.47
31483;BME280;18103;52.246;8.052;2023-05-07T00:10:44;100549.28;;;13.67;77.46
31483;BME280;18103;52.246;8.052;2023-05-07T00:13:10;100548.13;;;13.69;77.62
31483;BME280;18103;52.246;8.052;2023-05-07T00:15:39;100546.75;;;13.75;76.88
31483;BME280;18103;52.246;8.052;2023-05-07T00:18:05;100525.94;;;13.61;77.48
31483;BME280;18103;52.246;8.052;2023-05-07T00:20:35;100538.38;;;13.70;76.86
31483;BME280;18103;52.246;8.052;2023-05-07T00:23:02;100533.34;;;13.57;77.42
31483;BME280;18103;52.246;8.052;2023-05-07T00:25:30;100536.69;;;13.59;77.16
31483;BME280;18103;52.246;8.052;2023-05-07T00:27:55;100537.34;;;13.42;77.97
31483;BME280;18103;52.246;8.052;2023-05-07T00:30:22;100538.19;;;13.52;77.10
31483;BME280;18103;52.246;8.052;2023-05-07T00:32:47;100536.19;;;13.44;77.56
31483;BME280;18103;52.246;8.052;2023-05-07T00:35:14;100534.13;;;13.48;77.29
31483;BME280;18103;52.246;8.052;2023-05-07T00:37:39;100533.13;;;13.39;77.81
31483;BME280;18103;52.246;8.052;2023-05-07T00:40:05;100530.75;;;13.36;78.13
31483;BME280;18103;52.246;8.052;2023-05-07T00:42:32;100534.09;;;13.38;77.94
31483;BME280;18103;52.246;8.052;2023-05-07T00:44:58;100532.66;;;13.34;77.50
31483;BME280;18103;52.246;8.052;2023-05-07T00:47:24;100535.59;;;13.31;77.91
31483;BME280;18103;52.246;8.052;2023-05-07T00:49:50;100539.47;;;13.27;77.96
31483;BME280;18103;52.246;8.052;2023-05-07T00:52:19;100550.91;;;13.27;77.91
31483;BME280;18103;52.246;8.052;2023-05-07T00:54:47;100545.59;;;13.27;77.85
31483;BME280;18103;52.246;8.052;2023-05-07T00:57:13;100552.53;;;13.18;78.40
31483;BME280;18103;52.246;8.052;2023-05-07T00:59:40;100552.69;;;13.17;78.36
31483;BME280;18103;52.246;8.052;2023-05-07T01:02:06;100546.56;;;13.16;77.86
31483;BME280;18103;52.246;8.052;2023-05-07T01:04:32;100553.09;;;13.12;78.14
31483;BME280;18103;52.246;8.052;2023-05-07T01:07:03;100547.09;;;13.20;77.90
31483;BME280;18103;52.246;8.052;2023-05-07T01:09:29;100558.50;;;13.11;77.88
31483;BME280;18103;52.246;8.052;2023-05-07T01:11:57;100548.03;;;13.09;78.15
31483;BME280;18103;52.246;8.052;2023-05-07T01:14:26;100547.88;;;13.11;77.91
31483;BME280;18103;52.246;8.052;2023-05-07T01:16:52;100549.16;;;13.07;77.96
31483;BME280;18103;52.246;8.052;2023-05-07T01:19:20;100546.88;;;13.02;78.25
31483;BME280;18103;52.246;8.052;2023-05-07T01:21:47;100543.63;;;12.89;78.85
31483;BME280;18103;52.246;8.052;2023-05-07T01:24:13;100546.13;;;12.90;78.54
31483;BME280;18103;52.246;8.052;2023-05-07T01:26:43;100540.56;;;12.93;78.75
31483;BME280;18103;52.246;8.052;2023-05-07T01:29:09;100541.94;;;12.88;78.61
31483;BME280;18103;52.246;8.052;2023-05-07T01:31:35;100538.81;;;12.82;78.97
31483;BME280;18103;52.246;8.052;2023-05-07T01:34:05;100532.47;;;12.95;78.55
31483;BME280;18103;52.246;8.052;2023-05-07T01:36:32;100526.84;;;12.88;78.56
31483;BME280;18103;52.246;8.052;2023-05-07T01:39:01;100525.16;;;12.77;78.90
31483;BME280;18103;52.246;8.052;2023-05-07T01:41:27;100521.13;;;12.83;78.85
31483;BME280;18103;52.246;8.052;2023-05-07T01:43:55;100526.03;;;12.66;79.22
31483;BME280;18103;52.246;8.052;2023-05-07T01:46:23;100524.34;;;12.87;78.42
31483;BME280;18103;52.246;8.052;2023-05-07T01:48:49;100528.16;;;12.73;78.35
31483;BME280;18103;52.246;8.052;2023-05-07T01:51:15;100539.78;;;12.81;78.33
31483;BME280;18103;52.246;8.052;2023-05-07T01:53:40;100538.75;;;12.73;79.11
31483;BME280;18103;52.246;8.052;2023-05-07T01:56:09;100533.09;;;12.77;78.77
31483;BME280;18103;52.246;8.052;2023-05-07T01:58:36;100537.88;;;12.62;79.45
31483;BME280;18103;52.246;8.052;2023-05-07T02:01:04;100538.06;;;12.71;78.31
31483;BME280;18103;52.246;8.052;2023-05-07T02:03:32;100540.13;;;12.67;79.21
31483;BME280;18103;52.246;8.052;2023-05-07T02:05:57;100544.84;;;12.42;79.80
31483;BME280;18103;52.246;8.052;2023-05-07T02:08:28;100545.75;;;12.53;79.72
31483;BME280;18103;52.246;8.052;2023-05-07T02:10:55;100552.47;;;12.57;79.31
31483;BME280;18103;52.246;8.052;2023-05-07T02:13:23;100550.38;;;12.60;78.65
31483;BME280;18103;52.246;8.052;2023-05-07T02:15:51;100545.47;;;12.56;79.14
31483;BME280;18103;52.246;8.052;2023-05-07T02:18:21;100548.72;;;12.59;79.34
31483;BME280;18103;52.246;8.052;2023-05-07T02:20:46;100544.84;;;12.42;80.19
31483;BME280;18103;52.246;8.052;2023-05-07T02:23:11;100538.25;;;12.58;79.60
31483;BME280;18103;52.246;8.052;2023-05-07T02:25:40;100542.34;;;12.62;79.09
31483;BME280;18103;52.246;8.052;2023-05-07T02:28:05;100534.63;;;12.59;79.51
31483;BME280;18103;52.246;8.052;2023-05-07T02:30:33;100534.13;;;12.44;79.81
31483;BME280;18103;52.246;8.052;2023-05-07T02:32:58;100544.00;;;12.63;78.72
31483;BME280;18103;52.246;8.052;2023-05-07T02:35:25;100540.31;;;12.54;79.85
31483;BME280;18103;52.246;8.052;2023-05-07T02:37:50;100538.63;;;12.53;79.55
31483;BME280;18103;52.246;8.052;2023-05-07T02:40:18;100539.63;;;12.52;79.68
31483;BME280;18103;52.246;8.052;2023-05-07T02:42:43;100531.69;;;12.41;80.03
31483;BME280;18103;52.246;8.052;2023-05-07T02:45:11;100543.03;;;12.43;79.68
31483;BME280;18103;52.246;8.052;2023-05-07T02:47:39;100547.84;;;12.38;80.08
31483;BME280;18103;52.246;8.052;2023-05-07T02:50:05;100552.78;;;12.42;79.80
31483;BME280;18103;52.246;8.052;2023-05-07T02:52:31;100557.47;;;12.39;79.94
31483;BME280;18103;52.246;8.052;2023-05-07T02:54:56;100547.34;;;12.44;79.81
31483;BME280;18103;52.246;8.052;2023-05-07T02:57:22;100550.63;;;12.36;80.13
31483;BME280;18103;52.246;8.052;2023-05-07T02:59:47;100554.00;;;12.38;79.85
31483;BME280;18103;52.246;8.052;2023-05-07T03:02:12;100556.13;;;12.44;79.45
31483;BME280;18103;52.246;8.052;2023-05-07T03:04:39;100548.38;;;12.31;79.97
31483;BME280;18103;52.246;8.052;2023-05-07T03:07:05;100545.66;;;12.43;79.67
31483;BME280;18103;52.246;8.052;2023-05-07T03:09:33;100554.75;;;12.29;80.41
31483;BME280;18103;52.246;8.052;2023-05-07T03:11:58;100544.25;;;12.39;79.68
31483;BME280;18103;52.246;8.052;2023-05-07T03:14:24;100546.16;;;12.37;79.81
31483;BME280;18103;52.246;8.052;2023-05-07T03:16:49;100542.59;;;12.26;80.60
31483;BME280;18103;52.246;8.052;2023-05-07T03:19:15;100535.84;;;12.33;79.80
31483;BME280;18103;52.246;8.052;2023-05-07T03:21:45;100543.16;;;12.41;79.41
31483;BME280;18103;52.246;8.052;2023-05-07T03:24:12;100542.81;;;12.35;80.24
31483;BME280;18103;52.246;8.052;2023-05-07T03:26:38;100537.06;;;12.29;79.62
31483;BME280;18103;52.246;8.052;2023-05-07T03:29:03;100536.09;;;12.30;79.77
31483;BME280;18103;52.246;8.052;2023-05-07T03:31:28;100536.47;;;12.26;79.86
31483;BME280;18103;52.246;8.052;2023-05-07T03:33:57;100529.38;;;12.26;80.55
31483;BME280;18103;52.246;8.052;2023-05-07T03:36:23;100527.19;;;12.31;80.27
31483;BME280;18103;52.246;8.052;2023-05-07T03:38:51;100530.72;;;12.21;80.74
31483;BME280;18103;52.246;8.052;2023-05-07T03:41:16;100530.59;;;12.22;80.73
31483;BME280;18103;52.246;8.052;2023-05-07T03:43:42;100537.44;;;12.25;79.85
31483;BME280;18103;52.246;8.052;2023-05-07T03:46:08;100546.59;;;12.21;80.09
31483;BME280;18103;52.246;8.052;2023-05-07T03:48:36;100537.97;;;12.19;80.48
31483;BME280;18103;52.246;8.052;2023-05-07T03:51:02;100539.50;;;12.21;80.23
31483;BME280;18103;52.246;8.052;2023-05-07T03:53:27;100541.56;;;12.18;80.60
31483;BME280;18103;52.246;8.052;2023-05-07T03:55:52;100544.91;;;12.20;80.33
31483;BME280;18103;52.246;8.052;2023-05-07T03:58:20;100554.94;;;12.16;79.94
31483;BME280;18103;52.246;8.052;2023-05-07T04:00:50;100555.28;;;12.23;79.67
31483;BME280;18103;52.246;8.052;2023-05-07T04:03:16;100554.78;;;12.18;80.50
31483;BME280;18103;52.246;8.052;2023-05-07T04:05:42;100557.66;;;12.26;79.97
31483;BME280;18103;52.246;8.052;2023-05-07T04:08:09;100552.16;;;12.18;79.99
31483;BME280;18103;52.246;8.052;2023-05-07T04:10:35;100555.41;;;12.10;80.36
31483;BME280;18103;52.246;8.052;2023-05-07T04:13:00;100559.13;;;12.07;80.11
31483;BME280;18103;52.246;8.052;2023-05-07T04:15:28;100566.00;;;12.10;80.65
31483;BME280;18103;52.246;8.052;2023-05-07T04:17:56;100570.38;;;12.00;80.89
31483;BME280;18103;52.246;8.052;2023-05-07T04:20:21;100569.97;;;12.04;80.93
31483;BME280;18103;52.246;8.052;2023-05-07T04:22:46;100567.34;;;12.04;80.69
31483;BME280;18103;52.246;8.052;2023-05-07T04:25:12;100578.28;;;12.11;79.77
31483;BME280;18103;52.246;8.052;2023-05-07T04:27:37;100579.69;;;12.15;79.88
31483;BME280;18103;52.246;8.052;2023-05-07T04:30:03;100584.88;;;12.17;80.39
31483;BME280;18103;52.246;8.052;2023-05-07T04:32:29;100579.69;;;12.15;80.22
31483;BME280;18103;52.246;8.052;2023-05-07T04:34:57;100575.50;;;12.12;80.57
31483;BME280;18103;52.246;8.052;2023-05-07T04:37:25;100577.22;;;12.02;80.42
31483;BME280;18103;52.246;8.052;2023-05-07T04:39:51;100575.75;;;12.09;80.09
31483;BME280;18103;52.246;8.052;2023-05-07T04:42:17;100583.69;;;12.09;80.09
31483;BME280;18103;52.246;8.052;2023-05-07T04:44:52;100576.97;;;12.05;80.31
31483;BME280;18103;52.246;8.052;2023-05-07T04:47:17;100582.03;;;11.97;81.27
31483;BME280;18103;52.246;8.052;2023-05-07T04:49:47;100581.16;;;12.08;80.64
31483;BME280;18103;52.246;8.052;2023-05-07T04:52:13;100570.97;;;12.03;80.70
31483;BME280;18103;52.246;8.052;2023-05-07T04:54:38;100570.25;;;12.01;80.88
31483;BME280;18103;52.246;8.052;2023-05-07T04:57:04;100585.16;;;12.02;80.29
31483;BME280;18103;52.246;8.052;2023-05-07T04:59:30;100572.75;;;11.91;81.17
31483;BME280;18103;52.246;8.052;2023-05-07T05:01:55;100576.00;;;12.06;80.53
31483;BME280;18103;52.246;8.052;2023-05-07T05:04:21;100577.91;;;11.93;81.13
31483;BME280;18103;52.246;8.052;2023-05-07T05:06:48;100581.41;;;11.93;81.51
31483;BME280;18103;52.246;8.052;2023-05-07T05:09:16;100577.09;;;12.04;80.80
31483;BME280;18103;52.246;8.052;2023-05-07T05:11:42;100579.13;;;11.89;80.99
31483;BME280;18103;52.246;8.052;2023-05-07T05:14:07;100580.47;;;11.94;81.23
31483;BME280;18103;52.246;8.052;2023-05-07T05:16:32;100581.63;;;11.90;81.50
31483;BME280;18103;52.246;8.052;2023-05-07T05:18:58;100586.38;;;11.98;81.14
31483;BME280;18103;52.246;8.052;2023-05-07T05:21:26;100586.63;;;11.95;81.46
31483;BME280;18103;52.246;8.052;2023-05-07T05:23:53;100595.47;;;12.05;81.00
31483;BME280;18103;52.246;8.052;2023-05-07T05:26:19;100589.56;;;11.90;81.61
31483;BME280;18103;52.246;8.052;2023-05-07T05:28:47;100591.28;;;12.03;80.89
31483;BME280;18103;52.246;8.052;2023-05-07T05:31:12;100588.91;;;11.77;82.39
31483;BME280;18103;52.246;8.052;2023-05-07T05:33:38;100589.59;;;11.79;82.19
31483;BME280;18103;52.246;8.052;2023-05-07T05:36:06;100588.41;;;11.94;81.17
31483;BME280;18103;52.246;8.052;2023-05-07T05:38:34;100593.34;;;11.99;81.93
31483;BME280;18103;52.246;8.052;2023-05-07T05:41:02;100593.34;;;11.99;81.93
31483;BME280;18103;52.246;8.052;2023-05-07T05:43:27;100593.44;;;11.97;82.18
31483;BME280;18103;52.246;8.052;2023-05-07T05:45:55;100593.53;;;12.07;81.32
31483;BME280;18103;52.246;8.052;2023-05-07T05:48:22;100604.38;;;12.04;81.56
31483;BME280;18103;52.246;8.052;2023-05-07T05:50:48;100608.09;;;12.13;81.48
31483;BME280;18103;52.246;8.052;2023-05-07T05:53:13;100603.28;;;12.07;81.73
31483;BME280;18103;52.246;8.052;2023-05-07T05:55:39;100604.84;;;12.09;81.61
31483;BME280;18103;52.246;8.052;2023-05-07T05:58:04;100602.72;;;12.03;81.75
31483;BME280;18103;52.246;8.052;2023-05-07T06:00:30;100614.69;;;12.07;81.47
31483;BME280;18103;52.246;8.052;2023-05-07T06:02:55;100609.31;;;12.09;81.45
31483;BME280;18103;52.246;8.052;2023-05-07T06:05:21;100607.66;;;11.96;82.08
31483;BME280;18103;52.246;8.052;2023-05-07T06:07:46;100610.66;;;12.03;82.02
31483;BME280;18103;52.246;8.052;2023-05-07T06:10:12;100613.06;;;11.95;82.11
31483;BME280;18103;52.246;8.052;2023-05-07T06:12:37;100612.44;;;12.03;82.20
31483;BME280;18103;52.246;8.052;2023-05-07T06:15:03;100617.22;;;12.20;81.58
31483;BME280;18103;52.246;8.052;2023-05-07T06:17:28;100615.31;;;12.11;81.87
31483;BME280;18103;52.246;8.052;2023-05-07T06:19:56;100617.59;;;12.04;82.03
31483;BME280;18103;52.246;8.052;2023-05-07T06:22:22;100617.00;;;12.12;81.89
31483;BME280;18103;52.246;8.052;2023-05-07T06:24:49;100620.56;;;12.22;81.60
31483;BME280;18103;52.246;8.052;2023-05-07T06:27:19;100615.50;;;12.30;81.00
31483;BME280;18103;52.246;8.052;2023-05-07T06:29:48;100627.78;;;12.31;81.10
31483;BME280;18103;52.246;8.052;2023-05-07T06:32:13;100622.88;;;12.15;81.63
31483;BME280;18103;52.246;8.052;2023-05-07T06:34:42;100625.69;;;12.35;81.27
31483;BME280;18103;52.246;8.052;2023-05-07T06:37:07;100632.31;;;12.41;81.09
31483;BME280;18103;52.246;8.052;2023-05-07T06:39:33;100627.22;;;12.49;81.21
31483;BME280;18103;52.246;8.052;2023-05-07T06:42:03;100626.66;;;12.45;81.26
31483;BME280;18103;52.246;8.052;2023-05-07T06:44:29;100638.63;;;12.61;80.87
31483;BME280;18103;52.246;8.052;2023-05-07T06:46:57;100638.16;;;12.56;80.49
31483;BME280;18103;52.246;8.052;2023-05-07T06:49:25;100641.16;;;12.62;80.42
31483;BME280;18103;52.246;8.052;2023-05-07T06:51:50;100647.22;;;12.74;80.02
31483;BME280;18103;52.246;8.052;2023-05-07T06:54:18;100643.28;;;12.69;79.88
31483;BME280;18103;52.246;8.052;2023-05-07T06:56:46;100642.41;;;12.79;80.14
31483;BME280;18103;52.246;8.052;2023-05-07T06:59:13;100651.03;;;12.81;79.85
31483;BME280;18103;52.246;8.052;2023-05-07T07:01:41;100647.94;;;12.76;80.31
31483;BME280;18103;52.246;8.052;2023-05-07T07:04:07;100647.34;;;12.73;79.91
31483;BME280;18103;52.246;8.052;2023-05-07T07:06:34;100648.53;;;12.80;79.76
31483;BME280;18103;52.246;8.052;2023-05-07T07:09:00;100648.59;;;12.90;79.28
31483;BME280;18103;52.246;8.052;2023-05-07T07:11:25;100646.47;;;12.83;79.39
31483;BME280;18103;52.246;8.052;2023-05-07T07:13:51;100637.63;;;12.94;79.55
31483;BME280;18103;52.246;8.052;2023-05-07T07:16:16;100645.25;;;12.88;79.69
31483;BME280;18103;52.246;8.052;2023-05-07T07:18:44;100641.63;;;12.89;79.27
31483;BME280;18103;52.246;8.052;2023-05-07T07:21:10;100647.25;;;12.95;79.65
31483;BME280;18103;52.246;8.052;2023-05-07T07:23:38;100651.38;;;12.88;79.37
31483;BME280;18103;52.246;8.052;2023-05-07T07:26:03;100645.38;;;13.07;78.71
31483;BME280;18103;52.246;8.052;2023-05-07T07:28:31;100652.50;;;13.07;78.76
31483;BME280;18103;52.246;8.052;2023-05-07T07:30:56;100656.47;;;13.01;78.79
31483;BME280;18103;52.246;8.052;2023-05-07T07:33:24;100663.81;;;13.09;79.23
31483;BME280;18103;52.246;8.052;2023-05-07T07:35:52;100661.03;;;13.10;78.66
31483;BME280;18103;52.246;8.052;2023-05-07T07:38:18;100683.31;;;13.08;78.75
31483;BME280;18103;52.246;8.052;2023-05-07T07:40:43;100656.19;;;12.94;79.23
31483;BME280;18103;52.246;8.052;2023-05-07T07:43:09;100666.78;;;13.15;78.44
31483;BME280;18103;52.246;8.052;2023-05-07T07:45:34;100667.88;;;13.34;78.40
31483;BME280;18103;52.246;8.052;2023-05-07T07:48:00;100668.56;;;13.47;77.88
31483;BME280;18103;52.246;8.052;2023-05-07T07:50:25;100668.78;;;13.44;77.82
31483;BME280;18103;52.246;8.052;2023-05-07T07:52:51;100669.69;;;13.55;77.57
31483;BME280;18103;52.246;8.052;2023-05-07T07:55:19;100669.69;;;13.55;77.53
31483;BME280;18103;52.246;8.052;2023-05-07T07:57:49;100665.72;;;13.70;77.52
31483;BME280;18103;52.246;8.052;2023-05-07T08:00:17;100658.28;;;13.64;77.31
31483;BME280;18103;52.246;8.052;2023-05-07T08:02:47;100659.56;;;13.69;76.73
31483;BME280;18103;52.246;8.052;2023-05-07T08:05:12;100656.25;;;13.77;76.78
31483;BME280;18103;52.246;8.052;2023-05-07T08:07:40;100659.00;;;13.66;77.21
31483;BME280;18103;52.246;8.052;2023-05-07T08:10:06;100652.59;;;13.68;76.97
31483;BME280;18103;52.246;8.052;2023-05-07T08:12:31;100655.75;;;13.62;77.01
31483;BME280;18103;52.246;8.052;2023-05-07T08:14:57;100665.34;;;13.54;77.19
31483;BME280;18103;52.246;8.052;2023-05-07T08:17:22;100669.16;;;13.61;77.03
31483;BME280;18103;52.246;8.052;2023-05-07T08:19:50;100665.72;;;13.70;76.93
31483;BME280;18103;52.246;8.052;2023-05-07T08:22:15;100670.88;;;13.72;76.72
31483;BME280;18103;52.246;8.052;2023-05-07T08:24:40;100663.34;;;13.67;76.91
31483;BME280;18103;52.246;8.052;2023-05-07T08:27:06;100664.94;;;13.89;76.46
31483;BME280;18103;52.246;8.052;2023-05-07T08:29:33;100668.16;;;13.83;76.73
31483;BME280;18103;52.246;8.052;2023-05-07T08:32:01;100667.06;;;13.95;76.23
31483;BME280;18103;52.246;8.052;2023-05-07T08:34:26;100660.34;;;13.91;75.90
31483;BME280;18103;52.246;8.052;2023-05-07T08:36:52;100663.59;;;14.04;75.84
31483;BME280;18103;52.246;8.052;2023-05-07T08:39:17;100662.94;;;14.22;75.34
31483;BME280;18103;52.246;8.052;2023-05-07T08:41:46;100658.50;;;14.32;75.00
31483;BME280;18103;52.246;8.052;2023-05-07T08:44:13;100668.03;;;14.45;75.01
31483;BME280;18103;52.246;8.052;2023-05-07T08:46:45;100671.31;;;14.68;74.66
31483;BME280;18103;52.246;8.052;2023-05-07T08:49:17;100671.00;;;14.71;74.51
31483;BME280;18103;52.246;8.052;2023-05-07T08:51:44;100678.00;;;14.82;74.24
31483;BME280;18103;52.246;8.052;2023-05-07T08:54:16;100670.59;;;14.85;73.59
31483;BME280;18103;52.246;8.052;2023-05-07T08:56:41;100676.75;;;14.96;73.64
31483;BME280;18103;52.246;8.052;2023-05-07T08:59:07;100677.00;;;15.02;73.05
31483;BME280;18103;52.246;8.052;2023-05-07T09:01:34;100695.22;;;15.07;73.11
31483;BME280;18103;52.246;8.052;2023-05-07T09:04:05;100677.16;;;14.91;73.33
31483;BME280;18103;52.246;8.052;2023-05-07T09:06:32;100679.81;;;14.81;73.41
31483;BME280;18103;52.246;8.052;2023-05-07T09:09:02;100685.69;;;14.75;73.62
31483;BME280;18103;52.246;8.052;2023-05-07T09:11:30;100674.34;;;14.93;73.61
31483;BME280;18103;52.246;8.052;2023-05-07T09:13:57;100674.22;;;15.14;72.88
31483;BME280;18103;52.246;8.052;2023-05-07T09:16:25;100680.50;;;15.13;73.02
31483;BME280;18103;52.246;8.052;2023-05-07T09:18:54;100680.09;;;15.08;72.24
31483;BME280;18103;52.246;8.052;2023-05-07T09:21:20;100673.31;;;15.33;72.41
31483;BME280;18103;52.246;8.052;2023-05-07T09:23:50;100676.34;;;15.57;72.03
31483;BME280;18103;52.246;8.052;2023-05-07T09:26:21;100680.28;;;15.53;72.15
31483;BME280;18103;52.246;8.052;2023-05-07T09:28:46;100682.13;;;15.53;71.79
31483;BME280;18103;52.246;8.052;2023-05-07T09:31:14;100678.97;;;15.67;71.15
31483;BME280;18103;52.246;8.052;2023-05-07T09:33:40;100691.00;;;15.71;70.98
31483;BME280;18103;52.246;8.052;2023-05-07T09:36:07;100675.03;;;15.81;71.59
31483;BME280;18103;52.246;8.052;2023-05-07T09:38:35;100678.28;;;16.03;70.78
31483;BME280;18103;52.246;8.052;2023-05-07T09:41:11;100681.94;;;16.02;70.81
31483;BME280;18103;52.246;8.052;2023-05-07T09:43:38;100679.16;;;16.03;70.65
31483;BME280;18103;52.246;8.052;2023-05-07T09:46:14;100668.97;;;16.17;70.45
31483;BME280;18103;52.246;8.052;2023-05-07T09:48:45;100664.56;;;16.07;70.36
31483;BME280;18103;52.246;8.052;2023-05-07T09:51:25;100663.28;;;16.30;70.78
31483;BME280;18103;52.246;8.052;2023-05-07T09:53:53;100669.63;;;16.29;69.55
31483;BME280;18103;52.246;8.052;2023-05-07T09:56:19;100666.34;;;16.53;69.95
31483;BME280;18103;52.246;8.052;2023-05-07T09:58:48;100670.25;;;16.58;69.44
31483;BME280;18103;52.246;8.052;2023-05-07T10:01:17;100674.28;;;16.63;69.33
31483;BME280;18103;52.246;8.052;2023-05-07T10:03:49;100673.13;;;16.47;69.38
31483;BME280;18103;52.246;8.052;2023-05-07T10:06:16;100666.59;;;16.59;69.09
31483;BME280;18103;52.246;8.052;2023-05-07T10:08:44;100674.38;;;16.89;69.16
31483;BME280;18103;52.246;8.052;2023-05-07T10:11:11;100682.06;;;16.92;68.80
31483;BME280;18103;52.246;8.052;2023-05-07T10:13:37;100685.22;;;17.14;68.14
31483;BME280;18103;52.246;8.052;2023-05-07T10:16:06;100675.16;;;17.25;68.16
31483;BME280;18103;52.246;8.052;2023-05-07T10:18:32;100676.09;;;16.98;68.20
31483;BME280;18103;52.246;8.052;2023-05-07T10:21:18;100676.97;;;17.25;67.94
31483;BME280;18103;52.246;8.052;2023-05-07T10:23:50;100679.44;;;17.44;67.95
31483;BME280;18103;52.246;8.052;2023-05-07T10:26:20;100682.81;;;17.47;67.57
31483;BME280;18103;52.246;8.052;2023-05-07T10:28:52;100686.66;;;17.52;67.53
31483;BME280;18103;52.246;8.052;2023-05-07T10:31:37;100675.13;;;17.78;66.82
31483;BME280;18103;52.246;8.052;2023-05-07T10:34:10;100688.41;;;17.96;66.44
31483;BME280;18103;52.246;8.052;2023-05-07T10:36:37;100680.44;;;18.04;66.59
31483;BME280;18103;52.246;8.052;2023-05-07T10:39:05;100676.25;;;18.02;65.63
31483;BME280;18103;52.246;8.052;2023-05-07T10:41:36;100679.06;;;18.43;65.78
31483;BME280;18103;52.246;8.052;2023-05-07T10:44:02;100691.19;;;18.21;65.36
31483;BME280;18103;52.246;8.052;2023-05-07T10:46:28;100681.03;;;18.24;64.80
31483;BME280;18103;52.246;8.052;2023-05-07T10:51:36;100686.69;;;18.21;64.90
31483;BME280;18103;52.246;8.052;2023-05-07T10:54:22;100690.84;;;18.16;64.88
31483;BME280;18103;52.246;8.052;2023-05-07T10:56:50;100673.72;;;17.92;65.06
31483;BME280;18103;52.246;8.052;2023-05-07T11:02:02;100685.03;;;17.86;64.52
31483;BME280;18103;52.246;8.052;2023-05-07T11:04:29;100680.28;;;18.06;64.40
31483;BME280;18103;52.246;8.052;2023-05-07T11:15:07;100679.81;;;18.10;64.48
31483;BME280;18103;52.246;8.052;2023-05-07T11:17:52;100673.47;;;18.20;64.41
31483;BME280;18103;52.246;8.052;2023-05-07T11:20:20;100673.03;;;18.41;63.72
31483;BME280;18103;52.246;8.052;2023-05-07T11:22:46;100677.59;;;18.57;63.19
31483;BME280;18103;52.246;8.052;2023-05-07T11:25:17;100671.72;;;18.53;63.88
31483;BME280;18103;52.246;8.052;2023-05-07T11:27:43;100679.44;;;18.73;62.48
31483;BME280;18103;52.246;8.052;2023-05-07T11:30:09;100676.44;;;18.59;62.96
31483;BME280;18103;52.246;8.052;2023-05-07T11:32:37;100673.75;;;18.59;63.13
31483;BME280;18103;52.246;8.052;2023-05-07T11:35:03;100680.44;;;18.72;62.71
31483;BME280;18103;52.246;8.052;2023-05-07T11:37:28;100673.91;;;18.58;63.25
31483;BME280;18103;52.246;8.052;2023-05-07T11:40:05;100677.13;;;18.86;62.96
31483;BME280;18103;52.246;8.052;2023-05-07T11:42:33;100687.84;;;18.94;63.03
31483;BME280;18103;52.246;8.052;2023-05-07T11:45:01;100672.13;;;19.00;63.12
31483;BME280;18103;52.246;8.052;2023-05-07T11:47:30;100681.47;;;18.87;63.00
31483;BME280;18103;52.246;8.052;2023-05-07T11:49:55;100683.28;;;18.70;63.22
31483;BME280;18103;52.246;8.052;2023-05-07T11:52:24;100678.06;;;18.52;63.49
31483;BME280;18103;52.246;8.052;2023-05-07T11:54:53;100684.75;;;18.40;63.98
31483;BME280;18103;52.246;8.052;2023-05-07T11:57:22;100677.75;;;18.55;63.32
31483;BME280;18103;52.246;8.052;2023-05-07T11:59:55;100680.28;;;18.81;63.24
31483;BME280;18103;52.246;8.052;2023-05-07T12:02:24;100678.97;;;19.02;63.18
31483;BME280;18103;52.246;8.052;2023-05-07T12:04:51;100684.28;;;18.86;62.64
31483;BME280;18103;52.246;8.052;2023-05-07T12:07:16;100690.81;;;18.75;62.92
31483;BME280;18103;52.246;8.052;2023-05-07T12:09:47;100684.59;;;18.58;62.77
31483;BME280;18103;52.246;8.052;2023-05-07T12:12:15;100675.25;;;18.62;62.93
31483;BME280;18103;52.246;8.052;2023-05-07T12:14:45;100677.13;;;18.86;63.01
31483;BME280;18103;52.246;8.052;2023-05-07T12:17:13;100674.94;;;18.73;62.67
31483;BME280;18103;52.246;8.052;2023-05-07T12:19:42;100690.97;;;18.57;63.10
31483;BME280;18103;52.246;8.052;2023-05-07T12:22:09;100682.28;;;18.63;63.01
31483;BME280;18103;52.246;8.052;2023-05-07T12:24:47;100683.63;;;18.67;63.01
31483;BME280;18103;52.246;8.052;2023-05-07T12:27:17;100682.81;;;18.91;62.98
31483;BME280;18103;52.246;8.052;2023-05-07T12:29:49;100683.84;;;18.90;62.74
31483;BME280;18103;52.246;8.052;2023-05-07T12:32:16;100685.19;;;18.94;62.25
31483;BME280;18103;52.246;8.052;2023-05-07T12:34:45;100687.47;;;19.30;62.11
31483;BME280;18103;52.246;8.052;2023-05-07T12:37:13;100695.50;;;19.22;61.77
31483;BME280;18103;52.246;8.052;2023-05-07T12:39:44;100686.00;;;19.03;61.93
31483;BME280;18103;52.246;8.052;2023-05-07T12:42:15;100674.25;;;20.02;62.23
31483;BME280;18103;52.246;8.052;2023-05-07T12:44:41;100685.19;;;19.75;60.75
31483;BME280;18103;52.246;8.052;2023-05-07T12:47:12;100688.59;;;19.61;60.97
31483;BME280;18103;52.246;8.052;2023-05-07T12:49:38;100688.22;;;19.72;60.50
31483;BME280;18103;52.246;8.052;2023-05-07T12:52:06;100689.06;;;19.81;61.62
31483;BME280;18103;52.246;8.052;2023-05-07T12:54:33;100698.28;;;19.70;59.65
31483;BME280;18103;52.246;8.052;2023-05-07T12:57:06;100700.84;;;19.55;60.15
31483;BME280;18103;52.246;8.052;2023-05-07T12:59:39;100691.72;;;19.89;60.63
31483;BME280;18103;52.246;8.052;2023-05-07T13:02:06;100704.81;;;19.67;60.21
31483;BME280;18103;52.246;8.052;2023-05-07T13:04:34;100688.53;;;19.94;60.63